Woolcott, Kentucky
Current Conditions -  °F | °C
As of 1:35 AM on Wednesday 26 Nov 2014 (Local Time) from KFGX Reporting Station
Clear Clear  
Wind Chill: 26°   Ceiling: Unl
Heat Index: 32°   Visibility: 10mi
Dew Point: 28°   Wind: 6mph
Humidity: 87%   Direction: 20°NNE
Pressure: 30.15"   Gusts: NA
Location:  38.6516°N, 84.0942°W
Report Text: KFGX 260635Z AUTO 02005KT 10SM CLR 00/M02 A3015 RMK AO2 T00001020
Loading
Personal Weather Stations






























Interactive Weather Map New forecast layout! Learn more

10-Day Weather Forecast

Advertisements
Track Severe Weather on mobile